createdAt,value
2022-10-26T00:19:21.973Z,2.6
2022-10-26T00:49:24.198Z,2.8
2022-10-26T01:19:39.224Z,2.7
2022-10-26T01:49:25.750Z,2.6
2022-10-26T02:19:29.267Z,3.5
2022-10-26T02:49:25.186Z,3.9
2022-10-26T03:19:27.881Z,4
2022-10-26T03:49:26.084Z,3.7
2022-10-26T04:19:26.552Z,3.4
2022-10-26T04:49:27.548Z,3.4
2022-10-26T05:19:28.235Z,3.4
2022-10-26T05:49:29.356Z,2.9
2022-10-26T06:19:36.049Z,2.8
2022-10-26T06:49:31.797Z,2.4
2022-10-26T07:19:32.185Z,2.3
2022-10-26T07:49:32.814Z,2.6
2022-10-26T08:19:36.998Z,2.7
2022-10-26T08:49:42.884Z,2.5
2022-10-26T09:19:48.946Z,2.4
2022-10-26T09:49:43.453Z,2.4
2022-10-26T10:19:42.586Z,2.7
2022-10-26T10:49:45.521Z,2.6
2022-10-26T11:19:47.271Z,2.3
2022-10-26T11:49:50.317Z,2.1
2022-10-26T12:19:53.715Z,2.1
2022-10-26T12:50:03.240Z,1.7
2022-10-26T13:19:58.695Z,2.3
2022-10-26T13:49:58.169Z,1.6
2022-10-26T14:19:59.065Z,1.7
2022-10-26T14:50:02.753Z,1.6
2022-10-26T15:20:06.437Z,1.6
2022-10-26T15:50:09.468Z,1.6
2022-10-26T16:20:09.154Z,1.3
2022-10-26T16:50:11.132Z,1.1
2022-10-26T17:20:16.845Z,1.3
2022-10-26T17:50:15.443Z,1.5
2022-10-26T18:20:19.836Z,1.4
2022-10-26T18:50:19.472Z,1.5
2022-10-26T19:20:20.848Z,1.3
2022-10-26T19:50:25.188Z,1.4
2022-10-26T20:20:26.577Z,1.5
2022-10-26T20:50:26.458Z,1.6
2022-10-26T21:20:27.319Z,1.3
2022-10-26T21:50:29.141Z,1.5
2022-10-26T22:20:32.070Z,1.6
2022-10-26T22:50:32.244Z,1.6
2022-10-26T23:20:34.896Z,1.8
2022-10-26T23:50:36.052Z,1.7
